createdAt,value
2022-10-03T00:00:26.984Z,86.91
2022-10-03T00:03:35.739Z,86.94
2022-10-03T00:06:11.079Z,86.27
2022-10-03T00:09:10.786Z,85.62
2022-10-03T00:12:00.696Z,86.36
2022-10-03T00:14:53.099Z,86.03
2022-10-03T00:17:43.232Z,85.96
2022-10-03T00:20:36.647Z,86.12
2022-10-03T00:23:17.254Z,90.17
2022-10-03T00:25:49.448Z,92.48
2022-10-03T00:28:35.071Z,93.04
2022-10-03T00:31:01.801Z,93.39
2022-10-03T00:33:56.217Z,93.69
2022-10-03T00:36:26.104Z,94.33
2022-10-03T00:39:22.473Z,94.30
2022-10-03T00:42:38.035Z,94.01
2022-10-03T00:45:20.131Z,94.28
2022-10-03T00:48:19.128Z,93.92
2022-10-03T00:51:12.066Z,94.13
2022-10-03T00:53:51.018Z,93.82
2022-10-03T00:56:38.512Z,93.68
2022-10-03T00:59:16.749Z,93.46
2022-10-03T01:01:49.084Z,93.55
2022-10-03T01:04:32.344Z,93.70
2022-10-03T01:07:19.750Z,93.21
2022-10-03T01:10:09.532Z,92.63
2022-10-03T01:13:13.999Z,92.88
2022-10-03T01:15:55.807Z,91.89
2022-10-03T01:18:43.843Z,91.84
2022-10-03T01:21:26.274Z,91.93
2022-10-03T01:24:16.100Z,92.20
2022-10-03T01:27:06.515Z,91.66
2022-10-03T01:30:10.813Z,91.69
2022-10-03T01:32:53.008Z,92.13
2022-10-03T01:35:40.260Z,91.54
2022-10-03T01:38:20.781Z,91.06
2022-10-03T01:41:11.005Z,89.60
2022-10-03T01:44:03.988Z,90.41
2022-10-03T01:46:38.944Z,89.93
2022-10-03T01:49:19.847Z,90.86
2022-10-03T01:52:00.183Z,90.42
2022-10-03T01:54:34.218Z,89.90
2022-10-03T01:57:03.277Z,90.97
2022-10-03T01:59:57.312Z,91.78
2022-10-03T02:02:51.458Z,93.10
2022-10-03T02:05:35.578Z,93.18
2022-10-03T02:08:11.572Z,93.91
2022-10-03T02:10:50.867Z,94.52
2022-10-03T02:13:29.046Z,94.64
2022-10-03T02:16:05.859Z,95.37
2022-10-03T02:18:45.325Z,95.79
2022-10-03T02:21:23.910Z,95.81
2022-10-03T02:24:10.230Z,95.92
2022-10-03T02:27:14.809Z,96.11
2022-10-03T02:30:02.505Z,95.75
2022-10-03T02:32:41.418Z,94.71
2022-10-03T02:35:45.742Z,93.81
2022-10-03T02:38:44.042Z,93.78
2022-10-03T02:41:39.953Z,94.54
2022-10-03T02:44:36.958Z,93.98
2022-10-03T02:47:12.530Z,94.26
2022-10-03T02:50:10.479Z,93.37
2022-10-03T02:52:55.887Z,93.28
2022-10-03T02:55:50.665Z,93.23
2022-10-03T02:58:51.653Z,93.35
2022-10-03T03:01:40.050Z,93.21
2022-10-03T03:04:48.646Z,92.22
2022-10-03T03:07:15.254Z,91.56
2022-10-03T03:09:45.019Z,90.96
2022-10-03T03:12:51.558Z,91.24
2022-10-03T03:15:37.214Z,90.46
2022-10-03T03:18:26.568Z,90.64
2022-10-03T03:21:20.717Z,91.07
2022-10-03T03:24:24.742Z,90.43
2022-10-03T03:27:24.668Z,89.59
2022-10-03T03:30:15.729Z,89.48
2022-10-03T03:33:07.918Z,89.19
2022-10-03T03:36:12.009Z,89.33
2022-10-03T03:38:46.841Z,89.05
2022-10-03T03:41:19.616Z,89.24
2022-10-03T03:44:25.568Z,89.95
2022-10-03T03:47:23.250Z,89.08
2022-10-03T03:50:23.061Z,88.83
2022-10-03T03:53:11.666Z,89.18
2022-10-03T03:55:54.909Z,87.92
2022-10-03T03:58:45.197Z,87.42
2022-10-03T04:01:49.399Z,87.12
2022-10-03T04:04:44.198Z,87.64
2022-10-03T04:07:49.264Z,87.49
2022-10-03T04:10:53.879Z,87.00
2022-10-03T04:13:49.947Z,87.99
2022-10-03T04:16:54.430Z,87.12
2022-10-03T04:19:44.359Z,87.06
2022-10-03T04:22:32.673Z,87.16
2022-10-03T04:25:17.947Z,86.96
2022-10-03T04:28:00.135Z,86.66
2022-10-03T04:30:46.283Z,86.30
2022-10-03T04:33:25.554Z,86.23
2022-10-03T04:36:11.122Z,85.93
2022-10-03T04:39:25.960Z,86.15
2022-10-03T04:41:53.081Z,86.80
2022-10-03T04:44:38.503Z,86.57
2022-10-03T04:47:17.962Z,86.00
2022-10-03T04:49:52.388Z,85.74
2022-10-03T04:52:37.110Z,86.51
2022-10-03T04:55:11.041Z,86.43
2022-10-03T04:57:45.227Z,85.90
2022-10-03T05:00:30.016Z,84.61
2022-10-03T05:03:22.355Z,85.38
2022-10-03T05:06:06.101Z,84.90
2022-10-03T05:08:49.777Z,85.10
2022-10-03T05:11:43.352Z,85.62
2022-10-03T05:14:13.706Z,85.66
2022-10-03T05:16:53.428Z,86.06
2022-10-03T05:19:38.900Z,86.81
2022-10-03T05:22:23.735Z,86.98
2022-10-03T05:25:03.301Z,86.36
2022-10-03T05:27:47.719Z,86.63
2022-10-03T05:30:35.444Z,86.83
2022-10-03T05:33:08.949Z,86.64
2022-10-03T05:36:01.475Z,86.32
2022-10-03T05:38:34.116Z,86.66
2022-10-03T05:41:21.607Z,86.05
2022-10-03T05:44:01.419Z,86.11
2022-10-03T05:47:02.129Z,85.90
2022-10-03T05:49:51.316Z,85.98
2022-10-03T05:52:39.086Z,85.87
2022-10-03T05:55:29.133Z,85.59
2022-10-03T05:58:17.960Z,85.49
2022-10-03T06:00:50.147Z,85.04
2022-10-03T06:03:35.587Z,85.25
2022-10-03T06:06:27.769Z,84.48
2022-10-03T06:09:18.866Z,85.32
2022-10-03T06:12:01.208Z,85.18
2022-10-03T06:14:43.501Z,85.93
2022-10-03T06:17:42.829Z,85.62
2022-10-03T06:20:55.689Z,86.64
2022-10-03T06:23:47.471Z,85.74
2022-10-03T06:26:45.312Z,85.35
2022-10-03T06:29:57.320Z,85.15
2022-10-03T06:32:46.950Z,84.16
2022-10-03T06:35:52.935Z,84.45
2022-10-03T06:38:31.536Z,83.68
2022-10-03T06:41:22.970Z,84.35
2022-10-03T06:44:16.527Z,85.00
2022-10-03T06:46:52.078Z,85.95
2022-10-03T06:49:57.775Z,85.32
2022-10-03T06:52:36.357Z,85.21
2022-10-03T06:55:37.087Z,84.81
2022-10-03T06:58:37.617Z,85.12
2022-10-03T07:01:33.500Z,85.35
2022-10-03T07:04:35.728Z,84.12
2022-10-03T07:07:16.280Z,84.58
2022-10-03T07:09:49.304Z,84.36
2022-10-03T07:12:21.855Z,84.72
2022-10-03T07:15:17.779Z,83.28
2022-10-03T07:17:59.389Z,83.57
2022-10-03T07:20:57.328Z,83.34
2022-10-03T07:24:06.185Z,82.34
2022-10-03T07:27:12.120Z,82.18
2022-10-03T07:30:11.266Z,80.85
2022-10-03T07:33:03.267Z,81.45
2022-10-03T07:36:08.599Z,81.91
2022-10-03T07:38:59.568Z,81.57
2022-10-03T07:41:38.748Z,82.77
2022-10-03T07:44:24.211Z,82.23
2022-10-03T07:47:12.010Z,82.00
2022-10-03T07:49:47.862Z,82.46
2022-10-03T07:52:43.679Z,82.79
2022-10-03T07:55:13.352Z,81.35
2022-10-03T07:58:12.982Z,80.59
2022-10-03T08:00:58.096Z,79.08
2022-10-03T08:03:43.568Z,78.99
2022-10-03T08:06:26.692Z,79.68
2022-10-03T08:09:15.273Z,81.28
2022-10-03T08:12:09.798Z,80.62
2022-10-03T08:14:48.924Z,81.84
2022-10-03T08:17:53.727Z,81.49
2022-10-03T08:20:32.594Z,82.25
2022-10-03T08:23:31.937Z,83.17
2022-10-03T08:26:04.483Z,83.81
2022-10-03T08:28:59.748Z,82.86
2022-10-03T08:31:44.950Z,83.78
2022-10-03T08:34:48.872Z,83.06
2022-10-03T08:37:34.316Z,82.91
2022-10-03T08:40:19.660Z,87.28
2022-10-03T08:43:19.083Z,88.99
2022-10-03T08:46:02.473Z,89.44
2022-10-03T08:48:53.624Z,89.97
2022-10-03T08:51:59.645Z,90.38
2022-10-03T08:54:29.423Z,89.44
2022-10-03T08:57:22.305Z,88.94
2022-10-03T08:59:55.238Z,88.47
2022-10-03T09:02:31.275Z,88.78
2022-10-03T09:05:01.326Z,85.40
2022-10-03T09:07:52.443Z,80.54
2022-10-03T09:10:35.205Z,81.94
2022-10-03T09:13:23.104Z,82.57
2022-10-03T09:16:13.750Z,83.10
2022-10-03T09:19:01.096Z,84.70
2022-10-03T09:21:50.288Z,87.16
2022-10-03T09:24:55.669Z,89.42
2022-10-03T09:27:38.540Z,87.94
2022-10-03T09:30:43.892Z,86.24
2022-10-03T09:33:23.223Z,85.13
2022-10-03T09:35:59.290Z,84.68
2022-10-03T09:38:50.524Z,80.98
2022-10-03T09:41:42.868Z,85.37
2022-10-03T09:44:17.877Z,86.82
2022-10-03T09:47:28.018Z,86.51
2022-10-03T09:50:41.101Z,80.40
2022-10-03T09:53:30.075Z,74.73
2022-10-03T09:56:01.627Z,75.61
2022-10-03T09:59:06.009Z,77.56
2022-10-03T10:02:20.624Z,79.08
2022-10-03T10:05:26.432Z,79.80
2022-10-03T10:08:30.734Z,80.22
2022-10-03T10:11:15.652Z,76.12
2022-10-03T10:14:19.269Z,77.82
2022-10-03T10:17:23.566Z,77.66
2022-10-03T10:20:18.772Z,76.52
2022-10-03T10:22:57.480Z,77.22
2022-10-03T10:25:48.544Z,78.27
2022-10-03T10:28:22.849Z,78.92
2022-10-03T10:31:14.370Z,79.39
2022-10-03T10:34:26.811Z,76.50
2022-10-03T10:37:33.055Z,77.63
2022-10-03T10:40:21.873Z,77.34
2022-10-03T10:43:16.814Z,74.55
2022-10-03T10:46:05.769Z,73.60
2022-10-03T10:49:21.000Z,74.64
2022-10-03T10:52:19.805Z,68.58
2022-10-03T10:55:25.186Z,64.88
2022-10-03T10:58:04.034Z,66.69
2022-10-03T11:00:42.617Z,63.70
2022-10-03T11:03:12.418Z,61.29
2022-10-03T11:06:18.946Z,59.12
2022-10-03T11:09:23.298Z,58.23
2022-10-03T11:12:14.052Z,57.80
2022-10-03T11:15:05.451Z,57.50
2022-10-03T11:17:48.403Z,57.73
2022-10-03T11:20:54.751Z,62.76
2022-10-03T11:23:44.762Z,63.65
2022-10-03T11:26:23.675Z,67.64
2022-10-03T11:28:56.448Z,69.00
2022-10-03T11:32:12.023Z,70.55
2022-10-03T11:34:47.771Z,72.73
2022-10-03T11:37:30.308Z,73.90
2022-10-03T11:40:09.099Z,75.54
2022-10-03T11:42:39.831Z,75.57
2022-10-03T11:45:20.480Z,72.33
2022-10-03T11:48:19.486Z,69.82
2022-10-03T11:51:08.799Z,69.27
2022-10-03T11:54:13.017Z,69.71
2022-10-03T11:57:02.951Z,69.34
2022-10-03T11:59:35.748Z,71.36
2022-10-03T12:02:14.583Z,68.12
2022-10-03T12:05:12.900Z,67.06
2022-10-03T12:08:04.067Z,68.97
2022-10-03T12:10:59.350Z,68.91
2022-10-03T12:13:34.883Z,70.71
2022-10-03T12:16:02.949Z,71.28
2022-10-03T12:18:50.440Z,72.00
2022-10-03T12:21:39.457Z,71.60
2022-10-03T12:24:26.601Z,72.13
2022-10-03T12:27:03.715Z,69.87
2022-10-03T12:29:34.728Z,71.19
2022-10-03T12:32:25.007Z,73.61
2022-10-03T12:35:20.096Z,73.33
2022-10-03T12:38:01.645Z,73.88
2022-10-03T12:40:40.619Z,73.50
2022-10-03T12:43:19.351Z,74.32
2022-10-03T12:46:02.147Z,74.15
2022-10-03T12:48:43.956Z,74.17
2022-10-03T12:51:17.094Z,72.56
2022-10-03T12:54:09.026Z,72.48
2022-10-03T12:56:49.605Z,71.14
2022-10-03T12:59:23.701Z,73.14
2022-10-03T13:02:12.475Z,72.47
2022-10-03T13:05:18.260Z,72.70
2022-10-03T13:08:02.677Z,73.85
2022-10-03T13:11:10.774Z,73.93
2022-10-03T13:14:01.923Z,74.35
2022-10-03T13:16:34.674Z,74.28
2022-10-03T13:19:17.536Z,74.22
2022-10-03T13:21:46.494Z,72.51
2022-10-03T13:24:41.942Z,73.23
2022-10-03T13:27:29.188Z,74.60
2022-10-03T13:30:21.687Z,74.14
2022-10-03T13:33:09.996Z,74.28
2022-10-03T13:35:58.922Z,73.39
2022-10-03T13:38:28.669Z,73.57
2022-10-03T13:41:05.285Z,73.19
2022-10-03T13:43:37.774Z,71.25
2022-10-03T13:46:20.026Z,71.87
2022-10-03T13:49:10.814Z,71.54
2022-10-03T13:51:49.990Z,69.84
2022-10-03T13:54:55.502Z,71.87
2022-10-03T13:57:33.039Z,71.83
2022-10-03T14:00:10.942Z,73.09
2022-10-03T14:03:22.719Z,72.13
2022-10-03T14:06:05.437Z,70.90
2022-10-03T14:09:12.912Z,67.56
2022-10-03T14:12:14.146Z,68.23
2022-10-03T14:15:18.590Z,66.56
2022-10-03T14:18:19.804Z,64.63
2022-10-03T14:21:14.331Z,64.86
2022-10-03T14:23:53.164Z,64.16
2022-10-03T14:26:25.006Z,63.91
2022-10-03T14:28:51.668Z,64.13
2022-10-03T14:31:41.688Z,63.82
2022-10-03T14:34:34.070Z,63.57
2022-10-03T14:37:35.826Z,63.34
2022-10-03T14:40:28.062Z,62.34
2022-10-03T14:43:22.461Z,64.43
2022-10-03T14:45:55.645Z,66.15
2022-10-03T14:48:34.302Z,65.87
2022-10-03T14:51:08.578Z,67.61
2022-10-03T14:53:37.327Z,67.88
2022-10-03T14:56:07.872Z,69.16
2022-10-03T14:58:43.845Z,69.73
2022-10-03T15:01:19.313Z,71.19
2022-10-03T15:04:01.431Z,72.08
2022-10-03T15:06:53.633Z,73.10
2022-10-03T15:09:42.526Z,73.85
2022-10-03T15:12:28.383Z,74.11
2022-10-03T15:15:02.266Z,74.69
2022-10-03T15:17:33.372Z,74.28
2022-10-03T15:20:01.938Z,75.02
2022-10-03T15:22:28.850Z,74.54
2022-10-03T15:25:01.444Z,75.83
2022-10-03T15:27:28.651Z,75.69
2022-10-03T15:29:58.334Z,76.20
2022-10-03T15:32:32.728Z,76.49
2022-10-03T15:35:02.177Z,77.23
2022-10-03T15:37:35.276Z,77.60
2022-10-03T15:40:07.924Z,78.90
2022-10-03T15:42:47.286Z,78.95
2022-10-03T15:45:27.560Z,79.00
2022-10-03T15:47:58.470Z,78.79
2022-10-03T15:50:33.538Z,78.66
2022-10-03T15:53:36.087Z,78.14
2022-10-03T15:56:17.808Z,77.57
2022-10-03T15:58:58.315Z,77.45
2022-10-03T16:01:41.095Z,77.73
2022-10-03T16:04:22.185Z,78.39
2022-10-03T16:06:54.989Z,77.98
2022-10-03T16:09:40.979Z,77.40
2022-10-03T16:12:16.670Z,78.31
2022-10-03T16:14:49.034Z,78.92
2022-10-03T16:17:33.174Z,79.28
2022-10-03T16:20:23.607Z,78.80
2022-10-03T16:22:52.937Z,79.03
2022-10-03T16:25:24.364Z,79.16
2022-10-03T16:28:07.993Z,79.81
2022-10-03T16:30:44.272Z,80.32
2022-10-03T16:33:38.640Z,80.53
2022-10-03T16:36:09.663Z,82.31
2022-10-03T16:38:39.059Z,82.36
2022-10-03T16:41:28.422Z,82.72
2022-10-03T16:44:01.531Z,83.50
2022-10-03T16:46:35.792Z,84.10
2022-10-03T16:49:29.620Z,84.61
2022-10-03T16:52:09.951Z,84.90
2022-10-03T16:54:37.231Z,85.77
2022-10-03T16:57:11.883Z,86.29
2022-10-03T16:59:42.074Z,86.93
2022-10-03T17:02:15.589Z,86.74
2022-10-03T17:04:47.539Z,87.40
2022-10-03T17:07:29.024Z,87.96
2022-10-03T17:10:02.759Z,87.75
2022-10-03T17:12:37.379Z,87.50
2022-10-03T17:15:10.089Z,87.65
2022-10-03T17:17:50.472Z,87.80
2022-10-03T17:20:27.668Z,88.02
2022-10-03T17:23:12.438Z,87.88
2022-10-03T17:26:17.394Z,87.45
2022-10-03T17:29:11.265Z,87.61
2022-10-03T17:31:49.283Z,87.88
2022-10-03T17:34:29.014Z,88.22
2022-10-03T17:37:07.800Z,87.82
2022-10-03T17:39:39.939Z,88.10
2022-10-03T17:42:31.491Z,87.51
2022-10-03T17:45:26.148Z,88.09
2022-10-03T17:48:19.952Z,87.41
2022-10-03T17:51:25.509Z,87.70
2022-10-03T17:53:57.886Z,87.67
2022-10-03T17:56:27.462Z,88.05
2022-10-03T17:59:02.911Z,88.09
2022-10-03T18:01:36.950Z,88.40
2022-10-03T18:04:08.351Z,88.00
2022-10-03T18:06:50.355Z,87.70
2022-10-03T18:09:25.811Z,87.90
2022-10-03T18:11:59.991Z,87.67
2022-10-03T18:14:42.093Z,88.41
2022-10-03T18:17:59.520Z,87.96
2022-10-03T18:20:42.009Z,87.77
2022-10-03T18:23:23.365Z,88.12
2022-10-03T18:26:20.074Z,88.25
2022-10-03T18:29:19.354Z,88.46
2022-10-03T18:31:58.927Z,88.56
2022-10-03T18:34:59.196Z,88.36
2022-10-03T18:37:26.021Z,89.16
2022-10-03T18:39:56.077Z,88.42
2022-10-03T18:42:27.841Z,87.57
2022-10-03T18:44:57.796Z,87.99
2022-10-03T18:47:37.983Z,88.15
2022-10-03T18:50:32.288Z,88.41
2022-10-03T18:53:16.537Z,89.17
2022-10-03T18:55:53.117Z,88.86
2022-10-03T18:58:32.891Z,88.30
2022-10-03T19:01:20.927Z,88.61
2022-10-03T19:03:59.106Z,88.65
2022-10-03T19:06:35.722Z,88.81
2022-10-03T19:09:15.924Z,88.05
2022-10-03T19:11:50.233Z,88.33
2022-10-03T19:14:28.930Z,87.70
2022-10-03T19:17:04.448Z,87.43
2022-10-03T19:19:49.467Z,87.22
2022-10-03T19:22:21.390Z,87.59
2022-10-03T19:24:59.159Z,87.89
2022-10-03T19:27:49.013Z,87.53
2022-10-03T19:30:25.137Z,87.54
2022-10-03T19:32:58.308Z,87.48
2022-10-03T19:35:26.045Z,87.57
2022-10-03T19:37:56.027Z,87.67
2022-10-03T19:40:43.711Z,87.35
2022-10-03T19:43:31.776Z,87.12
2022-10-03T19:46:26.556Z,87.35
2022-10-03T19:49:23.929Z,88.11
2022-10-03T19:51:51.652Z,87.57
2022-10-03T19:54:35.022Z,87.67
2022-10-03T19:57:04.145Z,88.44
2022-10-03T19:59:46.887Z,88.17
2022-10-03T20:02:13.757Z,88.31
2022-10-03T20:04:41.007Z,87.88
2022-10-03T20:07:17.382Z,88.66
2022-10-03T20:10:00.350Z,88.86
2022-10-03T20:12:30.588Z,89.05
2022-10-03T20:15:17.237Z,89.63
2022-10-03T20:17:44.849Z,89.74
2022-10-03T20:20:19.470Z,89.48
2022-10-03T20:22:46.304Z,89.18
2022-10-03T20:25:31.107Z,89.73
2022-10-03T20:28:02.957Z,90.19
2022-10-03T20:30:49.108Z,90.67
2022-10-03T20:33:29.893Z,91.11
2022-10-03T20:35:59.430Z,90.45
2022-10-03T20:38:59.586Z,91.31
2022-10-03T20:41:37.261Z,91.32
2022-10-03T20:44:22.892Z,91.53
2022-10-03T20:46:51.989Z,92.06
2022-10-03T20:49:26.317Z,91.72
2022-10-03T20:51:53.513Z,91.78
2022-10-03T20:54:23.692Z,91.53
2022-10-03T20:57:15.596Z,91.72
2022-10-03T20:59:45.735Z,92.01
2022-10-03T21:02:40.643Z,92.14
2022-10-03T21:05:31.664Z,91.72
2022-10-03T21:08:12.498Z,91.77
2022-10-03T21:10:54.801Z,91.65
2022-10-03T21:13:25.164Z,91.87
2022-10-03T21:15:57.066Z,91.99
2022-10-03T21:18:26.032Z,92.12
2022-10-03T21:21:19.921Z,91.71
2022-10-03T21:23:54.976Z,91.53
2022-10-03T21:26:29.491Z,91.65
2022-10-03T21:29:28.852Z,92.13
2022-10-03T21:31:58.618Z,92.33
2022-10-03T21:34:46.014Z,91.97
2022-10-03T21:37:22.912Z,92.11
2022-10-03T21:40:12.988Z,92.30
2022-10-03T21:42:56.651Z,92.49
2022-10-03T21:45:40.544Z,92.36
2022-10-03T21:48:21.764Z,92.12
2022-10-03T21:50:56.949Z,92.34
2022-10-03T21:53:23.603Z,92.30
2022-10-03T21:55:53.542Z,91.84
2022-10-03T21:58:55.823Z,91.66
2022-10-03T22:01:55.023Z,91.47
2022-10-03T22:04:42.430Z,91.85
2022-10-03T22:07:16.442Z,91.70
2022-10-03T22:09:49.030Z,91.87
2022-10-03T22:12:17.991Z,91.85
2022-10-03T22:14:55.710Z,91.68
2022-10-03T22:17:35.101Z,91.57
2022-10-03T22:20:20.033Z,91.53
2022-10-03T22:23:02.828Z,91.72
2022-10-03T22:25:50.593Z,91.84
2022-10-03T22:28:42.164Z,91.69
2022-10-03T22:31:20.862Z,91.47
2022-10-03T22:33:54.895Z,91.39
2022-10-03T22:36:22.136Z,91.82
2022-10-03T22:38:51.291Z,91.38
2022-10-03T22:41:24.406Z,91.39
2022-10-03T22:43:53.506Z,91.62
2022-10-03T22:46:26.037Z,91.06
2022-10-03T22:49:26.736Z,90.69
2022-10-03T22:51:56.749Z,90.96
2022-10-03T22:54:32.604Z,91.10
2022-10-03T22:57:06.047Z,90.92
2022-10-03T22:59:39.780Z,91.35
2022-10-03T23:02:09.277Z,91.73
2022-10-03T23:04:49.989Z,92.03
2022-10-03T23:07:31.169Z,92.55
2022-10-03T23:10:06.756Z,92.46
2022-10-03T23:12:44.809Z,91.72
2022-10-03T23:15:16.018Z,91.41
2022-10-03T23:17:45.840Z,90.98
2022-10-03T23:20:41.125Z,91.39
2022-10-03T23:23:34.314Z,91.01
2022-10-03T23:26:28.156Z,90.43
2022-10-03T23:29:05.896Z,90.31
2022-10-03T23:31:55.330Z,90.50
2022-10-03T23:34:43.629Z,90.57
2022-10-03T23:37:13.278Z,90.01
2022-10-03T23:39:41.147Z,89.53
2022-10-03T23:42:23.933Z,89.49
2022-10-03T23:44:55.436Z,89.77
2022-10-03T23:47:48.771Z,89.73
2022-10-03T23:50:22.094Z,90.28
2022-10-03T23:52:56.593Z,90.15
2022-10-03T23:55:27.663Z,90.48
2022-10-03T23:57:55.086Z,90.70
